sensor_id;sensor_type;location;lat;lon;timestamp;P1;durP1;ratioP1;P2;durP2;ratioP2
24644;SDS011;12780;45.502;9.146;2023-05-10T00:00:50;24.55;;;14.95;;
24644;SDS011;12780;45.502;9.146;2023-05-10T00:03:16;24.75;;;14.70;;
24644;SDS011;12780;45.502;9.146;2023-05-10T00:05:42;22.10;;;13.43;;
24644;SDS011;12780;45.502;9.146;2023-05-10T00:08:07;25.52;;;14.35;;
24644;SDS011;12780;45.502;9.146;2023-05-10T00:10:33;24.88;;;15.20;;
24644;SDS011;12780;45.502;9.146;2023-05-10T00:12:59;26.23;;;15.40;;
24644;SDS011;12780;45.502;9.146;2023-05-10T00:15:24;24.05;;;14.07;;
24644;SDS011;12780;45.502;9.146;2023-05-10T00:17:50;24.48;;;14.40;;
24644;SDS011;12780;45.502;9.146;2023-05-10T00:20:16;24.77;;;14.90;;
24644;SDS011;12780;45.502;9.146;2023-05-10T00:22:41;23.17;;;14.75;;
24644;SDS011;12780;45.502;9.146;2023-05-10T00:25:07;22.38;;;14.40;;
24644;SDS011;12780;45.502;9.146;2023-05-10T00:27:34;25.30;;;14.65;;
24644;SDS011;12780;45.502;9.146;2023-05-10T00:29:59;24.65;;;14.60;;
24644;SDS011;12780;45.502;9.146;2023-05-10T00:32:25;29.60;;;15.50;;
24644;SDS011;12780;45.502;9.146;2023-05-10T00:34:50;22.83;;;14.60;;
24644;SDS011;12780;45.502;9.146;2023-05-10T00:37:17;25.88;;;14.20;;
24644;SDS011;12780;45.502;9.146;2023-05-10T00:39:42;28.20;;;14.88;;
24644;SDS011;12780;45.502;9.146;2023-05-10T00:42:08;29.73;;;15.90;;
24644;SDS011;12780;45.502;9.146;2023-05-10T00:44:34;27.05;;;14.65;;
24644;SDS011;12780;45.502;9.146;2023-05-10T00:46:59;24.27;;;14.30;;
24644;SDS011;12780;45.502;9.146;2023-05-10T00:49:25;34.08;;;15.88;;
24644;SDS011;12780;45.502;9.146;2023-05-10T00:51:51;25.95;;;15.32;;
24644;SDS011;12780;45.502;9.146;2023-05-10T00:54:17;30.42;;;17.13;;
24644;SDS011;12780;45.502;9.146;2023-05-10T00:56:42;29.25;;;16.50;;
24644;SDS011;12780;45.502;9.146;2023-05-10T00:59:13;26.45;;;15.35;;
24644;SDS011;12780;45.502;9.146;2023-05-10T01:01:43;20.30;;;11.98;;
24644;SDS011;12780;45.502;9.146;2023-05-10T01:04:10;23.27;;;13.73;;
24644;SDS011;12780;45.502;9.146;2023-05-10T01:06:37;29.55;;;15.65;;
24644;SDS011;12780;45.502;9.146;2023-05-10T01:09:03;19.98;;;11.00;;
24644;SDS011;12780;45.502;9.146;2023-05-10T01:11:29;20.38;;;11.13;;
24644;SDS011;12780;45.502;9.146;2023-05-10T01:13:55;19.02;;;11.25;;
24644;SDS011;12780;45.502;9.146;2023-05-10T01:16:22;20.83;;;8.43;;
24644;SDS011;12780;45.502;9.146;2023-05-10T01:18:49;22.33;;;12.00;;
24644;SDS011;12780;45.502;9.146;2023-05-10T01:21:33;21.10;;;11.07;;
24644;SDS011;12780;45.502;9.146;2023-05-10T01:24:17;22.13;;;10.90;;
24644;SDS011;12780;45.502;9.146;2023-05-10T01:27:07;19.88;;;11.65;;
24644;SDS011;12780;45.502;9.146;2023-05-10T01:35:18;22.13;;;11.60;;
24644;SDS011;12780;45.502;9.146;2023-05-10T01:43:02;25.87;;;13.37;;
24644;SDS011;12780;45.502;9.146;2023-05-10T01:48:05;22.48;;;13.20;;
24644;SDS011;12780;45.502;9.146;2023-05-10T01:50:35;24.65;;;14.02;;
24644;SDS011;12780;45.502;9.146;2023-05-10T01:53:03;23.13;;;12.73;;
24644;SDS011;12780;45.502;9.146;2023-05-10T01:55:32;23.48;;;13.60;;
24644;SDS011;12780;45.502;9.146;2023-05-10T01:58:02;23.85;;;13.77;;
24644;SDS011;12780;45.502;9.146;2023-05-10T02:00:34;27.38;;;14.23;;
24644;SDS011;12780;45.502;9.146;2023-05-10T02:03:01;26.65;;;14.60;;
24644;SDS011;12780;45.502;9.146;2023-05-10T02:05:30;23.45;;;11.50;;
24644;SDS011;12780;45.502;9.146;2023-05-10T02:07:58;22.13;;;10.45;;
24644;SDS011;12780;45.502;9.146;2023-05-10T02:10:26;18.83;;;10.40;;
24644;SDS011;12780;45.502;9.146;2023-05-10T02:12:53;19.40;;;10.45;;
24644;SDS011;12780;45.502;9.146;2023-05-10T02:15:21;21.52;;;10.05;;
24644;SDS011;12780;45.502;9.146;2023-05-10T02:17:49;18.70;;;9.15;;
24644;SDS011;12780;45.502;9.146;2023-05-10T02:20:17;16.33;;;7.97;;
24644;SDS011;12780;45.502;9.146;2023-05-10T02:22:45;15.75;;;8.20;;
24644;SDS011;12780;45.502;9.146;2023-05-10T02:25:13;15.60;;;7.60;;
24644;SDS011;12780;45.502;9.146;2023-05-10T02:27:40;14.63;;;7.32;;
24644;SDS011;12780;45.502;9.146;2023-05-10T02:30:07;11.05;;;6.22;;
24644;SDS011;12780;45.502;9.146;2023-05-10T02:32:34;12.82;;;6.90;;
24644;SDS011;12780;45.502;9.146;2023-05-10T02:35:01;11.95;;;6.38;;
24644;SDS011;12780;45.502;9.146;2023-05-10T02:37:28;12.40;;;6.80;;
24644;SDS011;12780;45.502;9.146;2023-05-10T02:39:55;13.57;;;6.78;;
24644;SDS011;12780;45.502;9.146;2023-05-10T02:42:26;19.88;;;7.18;;
24644;SDS011;12780;45.502;9.146;2023-05-10T02:44:53;10.70;;;6.45;;
24644;SDS011;12780;45.502;9.146;2023-05-10T02:47:22;11.60;;;7.13;;
24644;SDS011;12780;45.502;9.146;2023-05-10T02:49:48;12.88;;;6.97;;
24644;SDS011;12780;45.502;9.146;2023-05-10T02:52:15;13.88;;;5.68;;
24644;SDS011;12780;45.502;9.146;2023-05-10T02:54:47;11.93;;;5.50;;
24644;SDS011;12780;45.502;9.146;2023-05-10T02:57:16;16.08;;;6.80;;
24644;SDS011;12780;45.502;9.146;2023-05-10T02:59:43;18.13;;;7.60;;
24644;SDS011;12780;45.502;9.146;2023-05-10T03:02:10;14.38;;;7.38;;
24644;SDS011;12780;45.502;9.146;2023-05-10T03:04:37;12.68;;;7.07;;
24644;SDS011;12780;45.502;9.146;2023-05-10T03:07:03;13.07;;;6.30;;
24644;SDS011;12780;45.502;9.146;2023-05-10T03:09:29;16.55;;;6.68;;
24644;SDS011;12780;45.502;9.146;2023-05-10T03:15:00;3.65;;;2.05;;
24644;SDS011;12780;45.502;9.146;2023-05-10T03:17:42;4.30;;;2.33;;
24644;SDS011;12780;45.502;9.146;2023-05-10T03:20:24;6.80;;;2.72;;
24644;SDS011;12780;45.502;9.146;2023-05-10T03:25:46;7.00;;;2.78;;
24644;SDS011;12780;45.502;9.146;2023-05-10T03:28:15;4.55;;;2.50;;
24644;SDS011;12780;45.502;9.146;2023-05-10T03:30:42;4.07;;;1.85;;
24644;SDS011;12780;45.502;9.146;2023-05-10T03:33:09;7.22;;;2.50;;
24644;SDS011;12780;45.502;9.146;2023-05-10T03:35:35;6.18;;;2.30;;
24644;SDS011;12780;45.502;9.146;2023-05-10T03:38:01;3.28;;;1.90;;
24644;SDS011;12780;45.502;9.146;2023-05-10T03:40:27;6.57;;;2.40;;
24644;SDS011;12780;45.502;9.146;2023-05-10T03:43:00;5.45;;;2.03;;
24644;SDS011;12780;45.502;9.146;2023-05-10T03:45:25;3.08;;;1.98;;
24644;SDS011;12780;45.502;9.146;2023-05-10T03:47:51;16.15;;;8.35;;
24644;SDS011;12780;45.502;9.146;2023-05-10T03:50:17;23.20;;;9.25;;
24644;SDS011;12780;45.502;9.146;2023-05-10T03:52:43;22.13;;;9.13;;
24644;SDS011;12780;45.502;9.146;2023-05-10T03:55:09;19.55;;;8.05;;
24644;SDS011;12780;45.502;9.146;2023-05-10T03:57:35;15.07;;;8.25;;
24644;SDS011;12780;45.502;9.146;2023-05-10T04:00:01;16.73;;;7.78;;
24644;SDS011;12780;45.502;9.146;2023-05-10T04:02:27;3.17;;;1.80;;
24644;SDS011;12780;45.502;9.146;2023-05-10T04:04:54;15.10;;;7.45;;
24644;SDS011;12780;45.502;9.146;2023-05-10T04:07:20;13.57;;;7.75;;
24644;SDS011;12780;45.502;9.146;2023-05-10T04:09:46;11.38;;;6.30;;
24644;SDS011;12780;45.502;9.146;2023-05-10T04:12:12;12.10;;;6.70;;
24644;SDS011;12780;45.502;9.146;2023-05-10T04:14:38;14.00;;;6.75;;
24644;SDS011;12780;45.502;9.146;2023-05-10T04:17:03;15.93;;;7.15;;
24644;SDS011;12780;45.502;9.146;2023-05-10T04:19:30;2.03;;;1.42;;
24644;SDS011;12780;45.502;9.146;2023-05-10T04:21:56;4.40;;;2.58;;
24644;SDS011;12780;45.502;9.146;2023-05-10T04:24:22;3.88;;;1.85;;
24644;SDS011;12780;45.502;9.146;2023-05-10T04:26:47;3.42;;;2.05;;
24644;SDS011;12780;45.502;9.146;2023-05-10T04:29:13;12.63;;;7.03;;
24644;SDS011;12780;45.502;9.146;2023-05-10T04:31:38;11.50;;;6.65;;
24644;SDS011;12780;45.502;9.146;2023-05-10T04:34:04;11.82;;;5.50;;
24644;SDS011;12780;45.502;9.146;2023-05-10T04:36:30;11.02;;;6.05;;
24644;SDS011;12780;45.502;9.146;2023-05-10T04:38:57;11.60;;;6.55;;
24644;SDS011;12780;45.502;9.146;2023-05-10T04:41:23;11.50;;;6.63;;
24644;SDS011;12780;45.502;9.146;2023-05-10T04:43:49;14.25;;;7.60;;
24644;SDS011;12780;45.502;9.146;2023-05-10T04:46:15;11.32;;;6.90;;
24644;SDS011;12780;45.502;9.146;2023-05-10T04:48:41;11.25;;;6.70;;
24644;SDS011;12780;45.502;9.146;2023-05-10T04:51:06;12.50;;;7.00;;
24644;SDS011;12780;45.502;9.146;2023-05-10T04:53:32;11.15;;;6.38;;
24644;SDS011;12780;45.502;9.146;2023-05-10T04:55:57;11.95;;;6.97;;
24644;SDS011;12780;45.502;9.146;2023-05-10T04:58:23;12.43;;;6.55;;
24644;SDS011;12780;45.502;9.146;2023-05-10T05:00:49;11.18;;;6.07;;
24644;SDS011;12780;45.502;9.146;2023-05-10T05:03:14;11.52;;;5.95;;
24644;SDS011;12780;45.502;9.146;2023-05-10T05:05:40;11.02;;;6.15;;
24644;SDS011;12780;45.502;9.146;2023-05-10T05:08:05;17.92;;;5.97;;
24644;SDS011;12780;45.502;9.146;2023-05-10T05:10:31;11.55;;;6.82;;
24644;SDS011;12780;45.502;9.146;2023-05-10T05:12:57;13.43;;;6.20;;
24644;SDS011;12780;45.502;9.146;2023-05-10T05:15:22;14.45;;;7.30;;
24644;SDS011;12780;45.502;9.146;2023-05-10T05:17:48;16.23;;;6.75;;
24644;SDS011;12780;45.502;9.146;2023-05-10T05:20:14;15.88;;;7.03;;
24644;SDS011;12780;45.502;9.146;2023-05-10T05:22:40;15.00;;;6.15;;
24644;SDS011;12780;45.502;9.146;2023-05-10T05:25:06;9.93;;;6.47;;
24644;SDS011;12780;45.502;9.146;2023-05-10T05:27:32;12.52;;;5.88;;
24644;SDS011;12780;45.502;9.146;2023-05-10T05:29:58;15.43;;;6.40;;
24644;SDS011;12780;45.502;9.146;2023-05-10T05:32:24;11.27;;;5.97;;
24644;SDS011;12780;45.502;9.146;2023-05-10T05:34:51;12.80;;;6.05;;
24644;SDS011;12780;45.502;9.146;2023-05-10T05:37:18;10.38;;;5.70;;
24644;SDS011;12780;45.502;9.146;2023-05-10T05:39:45;11.70;;;6.60;;
24644;SDS011;12780;45.502;9.146;2023-05-10T05:42:11;12.25;;;6.25;;
24644;SDS011;12780;45.502;9.146;2023-05-10T05:44:38;10.40;;;6.15;;
24644;SDS011;12780;45.502;9.146;2023-05-10T05:47:04;9.48;;;6.55;;
24644;SDS011;12780;45.502;9.146;2023-05-10T05:49:30;11.60;;;7.22;;
24644;SDS011;12780;45.502;9.146;2023-05-10T05:52:00;13.27;;;7.70;;
24644;SDS011;12780;45.502;9.146;2023-05-10T05:54:26;12.70;;;7.18;;
24644;SDS011;12780;45.502;9.146;2023-05-10T05:56:53;13.77;;;7.40;;
24644;SDS011;12780;45.502;9.146;2023-05-10T05:59:20;14.20;;;7.78;;
24644;SDS011;12780;45.502;9.146;2023-05-10T06:01:46;14.50;;;7.40;;
24644;SDS011;12780;45.502;9.146;2023-05-10T06:04:12;15.05;;;8.10;;
24644;SDS011;12780;45.502;9.146;2023-05-10T06:06:38;14.63;;;7.78;;
24644;SDS011;12780;45.502;9.146;2023-05-10T06:09:04;14.55;;;8.30;;
24644;SDS011;12780;45.502;9.146;2023-05-10T06:11:30;14.13;;;7.63;;
24644;SDS011;12780;45.502;9.146;2023-05-10T06:13:59;10.90;;;7.55;;
24644;SDS011;12780;45.502;9.146;2023-05-10T06:16:26;11.30;;;7.88;;
24644;SDS011;12780;45.502;9.146;2023-05-10T06:18:52;11.00;;;7.88;;
24644;SDS011;12780;45.502;9.146;2023-05-10T06:21:18;13.32;;;8.20;;
24644;SDS011;12780;45.502;9.146;2023-05-10T06:23:44;11.82;;;8.43;;
24644;SDS011;12780;45.502;9.146;2023-05-10T06:26:10;12.93;;;8.75;;
24644;SDS011;12780;45.502;9.146;2023-05-10T06:28:36;13.85;;;8.57;;
24644;SDS011;12780;45.502;9.146;2023-05-10T06:31:05;15.48;;;8.93;;
24644;SDS011;12780;45.502;9.146;2023-05-10T06:33:32;13.52;;;8.38;;
24644;SDS011;12780;45.502;9.146;2023-05-10T06:35:58;13.30;;;8.48;;
24644;SDS011;12780;45.502;9.146;2023-05-10T06:38:24;14.48;;;8.45;;
24644;SDS011;12780;45.502;9.146;2023-05-10T06:40:50;13.40;;;8.13;;
24644;SDS011;12780;45.502;9.146;2023-05-10T06:43:16;14.30;;;9.13;;
24644;SDS011;12780;45.502;9.146;2023-05-10T06:45:42;13.55;;;8.07;;
24644;SDS011;12780;45.502;9.146;2023-05-10T06:48:08;14.07;;;8.20;;
24644;SDS011;12780;45.502;9.146;2023-05-10T06:50:34;12.38;;;7.88;;
24644;SDS011;12780;45.502;9.146;2023-05-10T06:53:00;14.45;;;7.18;;
24644;SDS011;12780;45.502;9.146;2023-05-10T06:55:27;12.57;;;7.35;;
24644;SDS011;12780;45.502;9.146;2023-05-10T06:57:54;9.27;;;6.15;;
24644;SDS011;12780;45.502;9.146;2023-05-10T07:00:20;11.35;;;7.18;;
24644;SDS011;12780;45.502;9.146;2023-05-10T07:02:46;8.23;;;6.38;;
24644;SDS011;12780;45.502;9.146;2023-05-10T07:05:12;10.20;;;6.90;;
24644;SDS011;12780;45.502;9.146;2023-05-10T07:07:39;9.32;;;7.05;;
24644;SDS011;12780;45.502;9.146;2023-05-10T07:10:05;8.40;;;6.43;;
24644;SDS011;12780;45.502;9.146;2023-05-10T07:12:32;9.23;;;6.75;;
24644;SDS011;12780;45.502;9.146;2023-05-10T07:14:58;10.23;;;6.60;;
24644;SDS011;12780;45.502;9.146;2023-05-10T07:17:24;10.60;;;6.38;;
24644;SDS011;12780;45.502;9.146;2023-05-10T07:19:50;7.88;;;5.63;;
24644;SDS011;12780;45.502;9.146;2023-05-10T07:22:16;10.95;;;5.22;;
24644;SDS011;12780;45.502;9.146;2023-05-10T07:24:43;9.25;;;5.57;;
24644;SDS011;12780;45.502;9.146;2023-05-10T07:27:09;8.07;;;5.40;;
24644;SDS011;12780;45.502;9.146;2023-05-10T07:29:35;9.30;;;5.40;;
24644;SDS011;12780;45.502;9.146;2023-05-10T07:32:02;8.02;;;5.93;;
24644;SDS011;12780;45.502;9.146;2023-05-10T07:34:28;9.43;;;6.43;;
24644;SDS011;12780;45.502;9.146;2023-05-10T07:36:55;9.35;;;5.95;;
24644;SDS011;12780;45.502;9.146;2023-05-10T07:39:21;12.23;;;6.38;;
24644;SDS011;12780;45.502;9.146;2023-05-10T07:41:47;10.48;;;6.50;;
24644;SDS011;12780;45.502;9.146;2023-05-10T07:44:13;12.63;;;6.75;;
24644;SDS011;12780;45.502;9.146;2023-05-10T07:46:39;9.18;;;6.28;;
24644;SDS011;12780;45.502;9.146;2023-05-10T07:49:05;10.45;;;6.97;;
24644;SDS011;12780;45.502;9.146;2023-05-10T07:51:31;11.02;;;6.35;;
24644;SDS011;12780;45.502;9.146;2023-05-10T07:53:57;12.52;;;7.95;;
24644;SDS011;12780;45.502;9.146;2023-05-10T07:56:27;12.93;;;8.00;;
24644;SDS011;12780;45.502;9.146;2023-05-10T07:59:01;18.70;;;8.35;;
24644;SDS011;12780;45.502;9.146;2023-05-10T08:01:32;9.85;;;6.65;;
24644;SDS011;12780;45.502;9.146;2023-05-10T08:03:58;12.63;;;7.40;;
24644;SDS011;12780;45.502;9.146;2023-05-10T08:06:24;15.57;;;7.40;;
24644;SDS011;12780;45.502;9.146;2023-05-10T08:08:54;13.57;;;6.72;;
24644;SDS011;12780;45.502;9.146;2023-05-10T08:11:21;11.38;;;6.47;;
24644;SDS011;12780;45.502;9.146;2023-05-10T08:13:48;10.60;;;6.10;;
24644;SDS011;12780;45.502;9.146;2023-05-10T08:16:14;8.88;;;6.13;;
24644;SDS011;12780;45.502;9.146;2023-05-10T08:18:40;12.10;;;7.78;;
24644;SDS011;12780;45.502;9.146;2023-05-10T08:21:06;13.15;;;5.55;;
24644;SDS011;12780;45.502;9.146;2023-05-10T08:23:32;7.95;;;5.72;;
24644;SDS011;12780;45.502;9.146;2023-05-10T08:25:59;9.10;;;5.55;;
24644;SDS011;12780;45.502;9.146;2023-05-10T08:28:25;9.32;;;6.03;;
24644;SDS011;12780;45.502;9.146;2023-05-10T08:30:52;10.77;;;6.13;;
24644;SDS011;12780;45.502;9.146;2023-05-10T08:33:18;10.15;;;6.57;;
24644;SDS011;12780;45.502;9.146;2023-05-10T08:35:44;9.98;;;6.03;;
24644;SDS011;12780;45.502;9.146;2023-05-10T08:38:10;7.95;;;5.70;;
24644;SDS011;12780;45.502;9.146;2023-05-10T08:40:37;8.70;;;5.20;;
24644;SDS011;12780;45.502;9.146;2023-05-10T08:43:10;9.27;;;5.55;;
24644;SDS011;12780;45.502;9.146;2023-05-10T08:45:41;7.28;;;5.38;;
24644;SDS011;12780;45.502;9.146;2023-05-10T08:48:08;7.45;;;4.88;;
24644;SDS011;12780;45.502;9.146;2023-05-10T08:50:38;6.85;;;4.65;;
24644;SDS011;12780;45.502;9.146;2023-05-10T08:53:13;6.97;;;4.95;;
24644;SDS011;12780;45.502;9.146;2023-05-10T08:55:41;7.03;;;4.80;;
24644;SDS011;12780;45.502;9.146;2023-05-10T08:58:08;6.45;;;4.70;;
24644;SDS011;12780;45.502;9.146;2023-05-10T09:00:34;7.72;;;4.90;;
24644;SDS011;12780;45.502;9.146;2023-05-10T09:03:00;12.60;;;5.57;;
24644;SDS011;12780;45.502;9.146;2023-05-10T09:05:27;8.27;;;4.50;;
24644;SDS011;12780;45.502;9.146;2023-05-10T09:07:53;5.80;;;4.10;;
24644;SDS011;12780;45.502;9.146;2023-05-10T09:10:19;6.70;;;4.40;;
24644;SDS011;12780;45.502;9.146;2023-05-10T09:12:45;6.70;;;4.55;;
24644;SDS011;12780;45.502;9.146;2023-05-10T09:15:11;6.95;;;4.47;;
24644;SDS011;12780;45.502;9.146;2023-05-10T09:17:39;9.85;;;4.82;;
24644;SDS011;12780;45.502;9.146;2023-05-10T09:20:06;7.03;;;4.45;;
24644;SDS011;12780;45.502;9.146;2023-05-10T09:22:33;5.45;;;4.22;;
24644;SDS011;12780;45.502;9.146;2023-05-10T09:27:36;6.05;;;4.40;;
24644;SDS011;12780;45.502;9.146;2023-05-10T09:30:02;7.70;;;4.80;;
24644;SDS011;12780;45.502;9.146;2023-05-10T09:32:36;8.30;;;4.70;;
24644;SDS011;12780;45.502;9.146;2023-05-10T09:35:12;6.68;;;4.75;;
24644;SDS011;12780;45.502;9.146;2023-05-10T09:37:39;7.38;;;4.45;;
24644;SDS011;12780;45.502;9.146;2023-05-10T09:40:06;6.60;;;4.32;;
24644;SDS011;12780;45.502;9.146;2023-05-10T09:42:34;5.55;;;4.20;;
24644;SDS011;12780;45.502;9.146;2023-05-10T09:45:09;7.35;;;5.32;;
24644;SDS011;12780;45.502;9.146;2023-05-10T09:47:35;6.13;;;4.80;;
24644;SDS011;12780;45.502;9.146;2023-05-10T09:50:01;5.57;;;4.57;;
24644;SDS011;12780;45.502;9.146;2023-05-10T09:52:31;5.63;;;4.03;;
24644;SDS011;12780;45.502;9.146;2023-05-10T09:55:11;5.10;;;3.92;;
24644;SDS011;12780;45.502;9.146;2023-05-10T09:57:37;6.03;;;3.97;;
24644;SDS011;12780;45.502;9.146;2023-05-10T10:00:04;6.50;;;4.28;;
24644;SDS011;12780;45.502;9.146;2023-05-10T10:02:30;6.72;;;4.28;;
24644;SDS011;12780;45.502;9.146;2023-05-10T10:04:56;7.28;;;4.30;;
24644;SDS011;12780;45.502;9.146;2023-05-10T10:07:23;8.88;;;5.22;;
24644;SDS011;12780;45.502;9.146;2023-05-10T10:09:50;7.30;;;4.63;;
24644;SDS011;12780;45.502;9.146;2023-05-10T10:12:17;6.28;;;4.60;;
24644;SDS011;12780;45.502;9.146;2023-05-10T10:14:44;6.00;;;4.40;;
24644;SDS011;12780;45.502;9.146;2023-05-10T10:17:10;8.30;;;5.00;;
24644;SDS011;12780;45.502;9.146;2023-05-10T10:19:37;7.18;;;5.25;;
24644;SDS011;12780;45.502;9.146;2023-05-10T10:22:04;5.43;;;4.13;;
24644;SDS011;12780;45.502;9.146;2023-05-10T10:24:30;5.53;;;4.40;;
24644;SDS011;12780;45.502;9.146;2023-05-10T10:26:59;7.82;;;4.70;;
24644;SDS011;12780;45.502;9.146;2023-05-10T10:29:34;10.60;;;5.32;;
24644;SDS011;12780;45.502;9.146;2023-05-10T10:34:47;9.48;;;5.55;;
24644;SDS011;12780;45.502;9.146;2023-05-10T10:37:13;10.45;;;5.68;;
24644;SDS011;12780;45.502;9.146;2023-05-10T10:39:39;7.10;;;5.38;;
24644;SDS011;12780;45.502;9.146;2023-05-10T10:42:06;7.75;;;5.28;;
24644;SDS011;12780;45.502;9.146;2023-05-10T10:49:30;10.57;;;5.20;;
24644;SDS011;12780;45.502;9.146;2023-05-10T10:52:20;7.40;;;4.82;;
24644;SDS011;12780;45.502;9.146;2023-05-10T10:54:51;6.90;;;5.30;;
24644;SDS011;12780;45.502;9.146;2023-05-10T10:57:17;7.88;;;5.07;;
24644;SDS011;12780;45.502;9.146;2023-05-10T10:59:44;7.93;;;5.13;;
24644;SDS011;12780;45.502;9.146;2023-05-10T11:04:55;7.38;;;5.22;;
24644;SDS011;12780;45.502;9.146;2023-05-10T11:07:21;8.20;;;5.72;;
24644;SDS011;12780;45.502;9.146;2023-05-10T11:09:48;8.32;;;5.82;;
24644;SDS011;12780;45.502;9.146;2023-05-10T11:12:14;9.35;;;6.13;;
24644;SDS011;12780;45.502;9.146;2023-05-10T11:14:40;8.45;;;5.70;;
24644;SDS011;12780;45.502;9.146;2023-05-10T11:17:25;7.28;;;5.80;;
24644;SDS011;12780;45.502;9.146;2023-05-10T11:20:02;9.68;;;6.05;;
24644;SDS011;12780;45.502;9.146;2023-05-10T11:22:29;8.73;;;6.18;;
24644;SDS011;12780;45.502;9.146;2023-05-10T11:24:58;10.95;;;6.43;;
24644;SDS011;12780;45.502;9.146;2023-05-10T11:27:24;8.63;;;6.57;;
24644;SDS011;12780;45.502;9.146;2023-05-10T11:29:53;9.70;;;6.60;;
24644;SDS011;12780;45.502;9.146;2023-05-10T11:32:19;13.48;;;6.15;;
24644;SDS011;12780;45.502;9.146;2023-05-10T11:34:46;7.97;;;5.88;;
24644;SDS011;12780;45.502;9.146;2023-05-10T11:37:13;9.43;;;6.55;;
24644;SDS011;12780;45.502;9.146;2023-05-10T11:39:45;9.23;;;6.15;;
24644;SDS011;12780;45.502;9.146;2023-05-10T11:42:12;9.77;;;5.72;;
24644;SDS011;12780;45.502;9.146;2023-05-10T11:44:38;14.13;;;6.20;;
24644;SDS011;12780;45.502;9.146;2023-05-10T11:47:05;11.77;;;5.65;;
24644;SDS011;12780;45.502;9.146;2023-05-10T11:49:32;8.77;;;4.93;;
24644;SDS011;12780;45.502;9.146;2023-05-10T11:52:06;8.25;;;5.20;;
24644;SDS011;12780;45.502;9.146;2023-05-10T11:54:32;7.60;;;5.00;;
24644;SDS011;12780;45.502;9.146;2023-05-10T11:57:00;7.50;;;5.20;;
24644;SDS011;12780;45.502;9.146;2023-05-10T11:59:26;9.95;;;5.68;;
24644;SDS011;12780;45.502;9.146;2023-05-10T12:01:52;6.85;;;5.05;;
24644;SDS011;12780;45.502;9.146;2023-05-10T12:04:18;6.57;;;5.15;;
24644;SDS011;12780;45.502;9.146;2023-05-10T12:06:44;7.00;;;4.97;;
24644;SDS011;12780;45.502;9.146;2023-05-10T12:09:11;6.63;;;5.57;;
24644;SDS011;12780;45.502;9.146;2023-05-10T12:11:38;10.70;;;6.05;;
24644;SDS011;12780;45.502;9.146;2023-05-10T12:14:05;8.40;;;6.07;;
24644;SDS011;12780;45.502;9.146;2023-05-10T12:16:31;7.90;;;5.97;;
24644;SDS011;12780;45.502;9.146;2023-05-10T12:18:58;6.53;;;5.07;;
24644;SDS011;12780;45.502;9.146;2023-05-10T12:21:24;7.15;;;6.00;;
24644;SDS011;12780;45.502;9.146;2023-05-10T12:23:51;10.23;;;5.97;;
24644;SDS011;12780;45.502;9.146;2023-05-10T12:26:18;6.97;;;5.97;;
24644;SDS011;12780;45.502;9.146;2023-05-10T12:28:44;9.02;;;5.30;;
24644;SDS011;12780;45.502;9.146;2023-05-10T12:31:11;8.85;;;5.53;;
24644;SDS011;12780;45.502;9.146;2023-05-10T12:33:37;7.22;;;5.05;;
24644;SDS011;12780;45.502;9.146;2023-05-10T12:36:04;5.07;;;4.35;;
24644;SDS011;12780;45.502;9.146;2023-05-10T12:38:32;4.95;;;4.15;;
24644;SDS011;12780;45.502;9.146;2023-05-10T12:41:02;7.75;;;4.30;;
24644;SDS011;12780;45.502;9.146;2023-05-10T12:43:28;6.78;;;4.65;;
24644;SDS011;12780;45.502;9.146;2023-05-10T12:45:54;7.45;;;4.20;;
24644;SDS011;12780;45.502;9.146;2023-05-10T12:48:21;9.95;;;4.75;;
24644;SDS011;12780;45.502;9.146;2023-05-10T12:50:47;6.72;;;4.53;;
24644;SDS011;12780;45.502;9.146;2023-05-10T12:53:13;6.78;;;4.70;;
24644;SDS011;12780;45.502;9.146;2023-05-10T12:55:40;5.95;;;4.80;;
24644;SDS011;12780;45.502;9.146;2023-05-10T12:58:06;6.78;;;4.25;;
24644;SDS011;12780;45.502;9.146;2023-05-10T13:00:32;9.85;;;5.20;;
24644;SDS011;12780;45.502;9.146;2023-05-10T13:02:58;5.63;;;4.28;;
24644;SDS011;12780;45.502;9.146;2023-05-10T13:05:25;8.23;;;4.47;;
24644;SDS011;12780;45.502;9.146;2023-05-10T13:07:51;7.43;;;3.97;;
24644;SDS011;12780;45.502;9.146;2023-05-10T13:10:17;6.65;;;4.30;;
24644;SDS011;12780;45.502;9.146;2023-05-10T13:12:43;5.82;;;4.35;;
24644;SDS011;12780;45.502;9.146;2023-05-10T13:15:09;8.00;;;4.20;;
24644;SDS011;12780;45.502;9.146;2023-05-10T13:17:35;5.22;;;4.28;;
24644;SDS011;12780;45.502;9.146;2023-05-10T13:20:03;5.75;;;4.30;;
24644;SDS011;12780;45.502;9.146;2023-05-10T13:22:30;6.75;;;4.53;;
24644;SDS011;12780;45.502;9.146;2023-05-10T13:24:56;5.60;;;4.32;;
24644;SDS011;12780;45.502;9.146;2023-05-10T13:27:22;7.28;;;4.45;;
24644;SDS011;12780;45.502;9.146;2023-05-10T13:29:48;5.65;;;4.20;;
24644;SDS011;12780;45.502;9.146;2023-05-10T13:32:15;6.60;;;4.72;;
24644;SDS011;12780;45.502;9.146;2023-05-10T13:34:41;6.57;;;4.43;;
24644;SDS011;12780;45.502;9.146;2023-05-10T13:37:07;7.30;;;4.28;;
24644;SDS011;12780;45.502;9.146;2023-05-10T13:39:33;5.97;;;4.25;;
24644;SDS011;12780;45.502;9.146;2023-05-10T13:41:59;7.32;;;4.13;;
24644;SDS011;12780;45.502;9.146;2023-05-10T13:44:25;8.23;;;4.50;;
24644;SDS011;12780;45.502;9.146;2023-05-10T13:46:51;7.10;;;4.28;;
24644;SDS011;12780;45.502;9.146;2023-05-10T13:49:18;7.32;;;4.10;;
24644;SDS011;12780;45.502;9.146;2023-05-10T13:51:44;5.80;;;4.47;;
24644;SDS011;12780;45.502;9.146;2023-05-10T13:54:10;5.63;;;4.15;;
24644;SDS011;12780;45.502;9.146;2023-05-10T13:56:36;6.75;;;4.53;;
24644;SDS011;12780;45.502;9.146;2023-05-10T13:59:02;7.03;;;4.38;;
24644;SDS011;12780;45.502;9.146;2023-05-10T14:01:28;6.05;;;4.07;;
24644;SDS011;12780;45.502;9.146;2023-05-10T14:03:54;6.28;;;4.30;;
24644;SDS011;12780;45.502;9.146;2023-05-10T14:06:20;8.60;;;4.40;;
24644;SDS011;12780;45.502;9.146;2023-05-10T14:08:46;6.70;;;4.57;;
24644;SDS011;12780;45.502;9.146;2023-05-10T14:11:12;5.45;;;4.20;;
24644;SDS011;12780;45.502;9.146;2023-05-10T14:13:38;6.97;;;4.00;;
24644;SDS011;12780;45.502;9.146;2023-05-10T14:16:05;7.55;;;4.50;;
24644;SDS011;12780;45.502;9.146;2023-05-10T14:18:31;6.00;;;4.00;;
24644;SDS011;12780;45.502;9.146;2023-05-10T14:20:57;6.20;;;4.15;;
24644;SDS011;12780;45.502;9.146;2023-05-10T14:23:23;7.55;;;4.47;;
24644;SDS011;12780;45.502;9.146;2023-05-10T14:25:49;7.70;;;4.85;;
24644;SDS011;12780;45.502;9.146;2023-05-10T14:28:16;7.47;;;5.03;;
24644;SDS011;12780;45.502;9.146;2023-05-10T14:30:43;8.07;;;4.95;;
24644;SDS011;12780;45.502;9.146;2023-05-10T14:33:09;7.38;;;4.90;;
24644;SDS011;12780;45.502;9.146;2023-05-10T14:35:35;11.23;;;4.72;;
24644;SDS011;12780;45.502;9.146;2023-05-10T14:38:02;8.45;;;5.00;;
24644;SDS011;12780;45.502;9.146;2023-05-10T14:40:29;8.00;;;5.00;;
24644;SDS011;12780;45.502;9.146;2023-05-10T14:42:55;7.03;;;4.78;;
24644;SDS011;12780;45.502;9.146;2023-05-10T14:45:21;9.30;;;4.85;;
24644;SDS011;12780;45.502;9.146;2023-05-10T14:47:48;6.22;;;4.80;;
24644;SDS011;12780;45.502;9.146;2023-05-10T14:50:14;8.43;;;4.55;;
24644;SDS011;12780;45.502;9.146;2023-05-10T14:52:41;15.20;;;4.78;;
24644;SDS011;12780;45.502;9.146;2023-05-10T14:55:07;11.73;;;4.75;;
24644;SDS011;12780;45.502;9.146;2023-05-10T14:57:33;6.25;;;4.72;;
24644;SDS011;12780;45.502;9.146;2023-05-10T15:00:00;7.95;;;4.80;;
24644;SDS011;12780;45.502;9.146;2023-05-10T15:02:26;8.88;;;4.80;;
24644;SDS011;12780;45.502;9.146;2023-05-10T15:04:52;6.82;;;5.00;;
24644;SDS011;12780;45.502;9.146;2023-05-10T15:07:18;5.88;;;4.68;;
24644;SDS011;12780;45.502;9.146;2023-05-10T15:09:44;8.43;;;4.90;;